sensor_id;sensor_type;location;lat;lon;timestamp;P1;durP1;ratioP1;P2;durP2;ratioP2
11046;SDS011;5576;50.008;10.596;2023-06-14T00:01:21;5.23;;;3.83;;
11046;SDS011;5576;50.008;10.596;2023-06-14T00:03:47;5.03;;;3.90;;
11046;SDS011;5576;50.008;10.596;2023-06-14T00:06:13;5.88;;;3.88;;
11046;SDS011;5576;50.008;10.596;2023-06-14T00:08:39;5.43;;;3.80;;
11046;SDS011;5576;50.008;10.596;2023-06-14T00:11:06;4.43;;;3.80;;
11046;SDS011;5576;50.008;10.596;2023-06-14T00:13:33;4.80;;;4.10;;
11046;SDS011;5576;50.008;10.596;2023-06-14T00:15:58;4.47;;;3.90;;
11046;SDS011;5576;50.008;10.596;2023-06-14T00:18:24;5.07;;;3.97;;
11046;SDS011;5576;50.008;10.596;2023-06-14T00:20:54;5.72;;;4.10;;
11046;SDS011;5576;50.008;10.596;2023-06-14T00:23:20;5.88;;;3.85;;
11046;SDS011;5576;50.008;10.596;2023-06-14T00:25:46;4.50;;;4.00;;
11046;SDS011;5576;50.008;10.596;2023-06-14T00:28:12;5.60;;;3.80;;
11046;SDS011;5576;50.008;10.596;2023-06-14T00:30:38;5.00;;;3.80;;
11046;SDS011;5576;50.008;10.596;2023-06-14T00:33:04;5.73;;;4.23;;
11046;SDS011;5576;50.008;10.596;2023-06-14T00:35:30;5.20;;;3.90;;
11046;SDS011;5576;50.008;10.596;2023-06-14T00:37:56;5.13;;;3.90;;
11046;SDS011;5576;50.008;10.596;2023-06-14T00:40:22;6.63;;;3.90;;
11046;SDS011;5576;50.008;10.596;2023-06-14T00:42:49;5.28;;;3.80;;
11046;SDS011;5576;50.008;10.596;2023-06-14T00:45:32;6.00;;;4.05;;
11046;SDS011;5576;50.008;10.596;2023-06-14T00:48:01;5.00;;;3.92;;
11046;SDS011;5576;50.008;10.596;2023-06-14T00:50:28;4.28;;;3.65;;
11046;SDS011;5576;50.008;10.596;2023-06-14T00:52:55;5.60;;;3.75;;
11046;SDS011;5576;50.008;10.596;2023-06-14T00:55:21;3.92;;;3.53;;
11046;SDS011;5576;50.008;10.596;2023-06-14T00:57:48;7.60;;;3.70;;
11046;SDS011;5576;50.008;10.596;2023-06-14T01:00:51;4.53;;;3.90;;
11046;SDS011;5576;50.008;10.596;2023-06-14T01:03:17;5.68;;;3.95;;
11046;SDS011;5576;50.008;10.596;2023-06-14T01:05:48;5.35;;;3.65;;
11046;SDS011;5576;50.008;10.596;2023-06-14T01:11:15;4.60;;;3.90;;
11046;SDS011;5576;50.008;10.596;2023-06-14T01:13:47;4.10;;;3.70;;
11046;SDS011;5576;50.008;10.596;2023-06-14T01:16:14;4.72;;;3.85;;
11046;SDS011;5576;50.008;10.596;2023-06-14T01:18:40;5.17;;;3.53;;
11046;SDS011;5576;50.008;10.596;2023-06-14T01:21:19;6.00;;;4.00;;
11046;SDS011;5576;50.008;10.596;2023-06-14T01:23:49;5.78;;;3.90;;
11046;SDS011;5576;50.008;10.596;2023-06-14T01:26:20;5.00;;;3.83;;
11046;SDS011;5576;50.008;10.596;2023-06-14T01:28:48;5.03;;;3.70;;
11046;SDS011;5576;50.008;10.596;2023-06-14T01:31:17;4.57;;;3.90;;
11046;SDS011;5576;50.008;10.596;2023-06-14T01:33:47;4.90;;;3.67;;
11046;SDS011;5576;50.008;10.596;2023-06-14T01:36:16;4.65;;;3.80;;
11046;SDS011;5576;50.008;10.596;2023-06-14T01:38:44;5.63;;;3.60;;
11046;SDS011;5576;50.008;10.596;2023-06-14T01:41:10;6.23;;;3.90;;
11046;SDS011;5576;50.008;10.596;2023-06-14T01:43:36;5.47;;;3.92;;
11046;SDS011;5576;50.008;10.596;2023-06-14T01:46:04;5.22;;;4.03;;
11046;SDS011;5576;50.008;10.596;2023-06-14T01:48:31;6.37;;;3.80;;
11046;SDS011;5576;50.008;10.596;2023-06-14T01:50:57;5.10;;;3.88;;
11046;SDS011;5576;50.008;10.596;2023-06-14T01:53:23;4.13;;;3.60;;
11046;SDS011;5576;50.008;10.596;2023-06-14T01:55:48;5.68;;;3.85;;
11046;SDS011;5576;50.008;10.596;2023-06-14T01:58:14;5.27;;;4.00;;
11046;SDS011;5576;50.008;10.596;2023-06-14T02:00:41;4.87;;;3.70;;
11046;SDS011;5576;50.008;10.596;2023-06-14T02:03:09;6.17;;;3.70;;
11046;SDS011;5576;50.008;10.596;2023-06-14T02:05:34;6.72;;;4.00;;
11046;SDS011;5576;50.008;10.596;2023-06-14T02:08:00;5.20;;;4.17;;
11046;SDS011;5576;50.008;10.596;2023-06-14T02:10:26;5.95;;;3.92;;
11046;SDS011;5576;50.008;10.596;2023-06-14T02:12:53;4.28;;;3.88;;
11046;SDS011;5576;50.008;10.596;2023-06-14T02:15:20;5.88;;;4.13;;
11046;SDS011;5576;50.008;10.596;2023-06-14T02:17:47;4.75;;;3.95;;
11046;SDS011;5576;50.008;10.596;2023-06-14T02:20:13;4.30;;;3.60;;
11046;SDS011;5576;50.008;10.596;2023-06-14T02:22:39;6.32;;;3.85;;
11046;SDS011;5576;50.008;10.596;2023-06-14T02:25:06;5.17;;;4.10;;
11046;SDS011;5576;50.008;10.596;2023-06-14T02:27:33;5.32;;;4.13;;
11046;SDS011;5576;50.008;10.596;2023-06-14T02:29:59;4.60;;;4.20;;
11046;SDS011;5576;50.008;10.596;2023-06-14T02:32:25;5.97;;;4.15;;
11046;SDS011;5576;50.008;10.596;2023-06-14T02:34:52;4.57;;;4.03;;
11046;SDS011;5576;50.008;10.596;2023-06-14T02:37:19;5.80;;;3.78;;
11046;SDS011;5576;50.008;10.596;2023-06-14T02:39:45;7.97;;;4.35;;
11046;SDS011;5576;50.008;10.596;2023-06-14T02:42:11;4.85;;;4.03;;
11046;SDS011;5576;50.008;10.596;2023-06-14T02:44:37;5.53;;;4.07;;
11046;SDS011;5576;50.008;10.596;2023-06-14T02:47:03;5.45;;;3.92;;
11046;SDS011;5576;50.008;10.596;2023-06-14T02:49:30;4.75;;;4.10;;
11046;SDS011;5576;50.008;10.596;2023-06-14T02:51:56;4.82;;;4.05;;
11046;SDS011;5576;50.008;10.596;2023-06-14T02:54:22;6.27;;;4.10;;
11046;SDS011;5576;50.008;10.596;2023-06-14T02:56:48;4.97;;;3.92;;
11046;SDS011;5576;50.008;10.596;2023-06-14T02:59:14;6.57;;;4.25;;
11046;SDS011;5576;50.008;10.596;2023-06-14T03:01:40;6.30;;;3.90;;
11046;SDS011;5576;50.008;10.596;2023-06-14T03:04:09;4.40;;;3.78;;
11046;SDS011;5576;50.008;10.596;2023-06-14T03:06:38;5.27;;;3.97;;
11046;SDS011;5576;50.008;10.596;2023-06-14T03:09:05;4.63;;;3.90;;
11046;SDS011;5576;50.008;10.596;2023-06-14T03:11:34;5.00;;;4.20;;
11046;SDS011;5576;50.008;10.596;2023-06-14T03:14:00;4.95;;;4.00;;
11046;SDS011;5576;50.008;10.596;2023-06-14T03:16:29;4.32;;;3.92;;
11046;SDS011;5576;50.008;10.596;2023-06-14T03:18:55;4.82;;;4.32;;
11046;SDS011;5576;50.008;10.596;2023-06-14T03:21:24;7.28;;;4.45;;
11046;SDS011;5576;50.008;10.596;2023-06-14T03:23:51;5.57;;;4.13;;
11046;SDS011;5576;50.008;10.596;2023-06-14T03:26:18;5.35;;;4.43;;
11046;SDS011;5576;50.008;10.596;2023-06-14T03:28:46;4.90;;;4.35;;
11046;SDS011;5576;50.008;10.596;2023-06-14T03:31:13;6.23;;;4.20;;
11046;SDS011;5576;50.008;10.596;2023-06-14T03:33:40;5.68;;;4.38;;
11046;SDS011;5576;50.008;10.596;2023-06-14T03:36:06;4.65;;;4.13;;
11046;SDS011;5576;50.008;10.596;2023-06-14T03:38:33;5.40;;;4.15;;
11046;SDS011;5576;50.008;10.596;2023-06-14T03:41:00;5.63;;;4.18;;
11046;SDS011;5576;50.008;10.596;2023-06-14T03:43:26;5.10;;;4.60;;
11046;SDS011;5576;50.008;10.596;2023-06-14T03:45:53;5.27;;;4.53;;
11046;SDS011;5576;50.008;10.596;2023-06-14T03:48:21;5.00;;;4.30;;
11046;SDS011;5576;50.008;10.596;2023-06-14T03:50:46;5.07;;;4.13;;
11046;SDS011;5576;50.008;10.596;2023-06-14T03:53:12;4.87;;;4.40;;
11046;SDS011;5576;50.008;10.596;2023-06-14T03:55:41;6.05;;;4.53;;
11046;SDS011;5576;50.008;10.596;2023-06-14T03:58:07;5.25;;;4.50;;
11046;SDS011;5576;50.008;10.596;2023-06-14T04:00:35;4.55;;;4.15;;
11046;SDS011;5576;50.008;10.596;2023-06-14T04:03:01;5.03;;;4.27;;
11046;SDS011;5576;50.008;10.596;2023-06-14T04:05:28;6.23;;;4.73;;
11046;SDS011;5576;50.008;10.596;2023-06-14T04:07:55;5.53;;;4.53;;
11046;SDS011;5576;50.008;10.596;2023-06-14T04:10:22;8.13;;;5.17;;
11046;SDS011;5576;50.008;10.596;2023-06-14T04:12:48;8.27;;;5.20;;
11046;SDS011;5576;50.008;10.596;2023-06-14T04:15:15;7.57;;;4.90;;
11046;SDS011;5576;50.008;10.596;2023-06-14T04:17:41;5.00;;;4.50;;
11046;SDS011;5576;50.008;10.596;2023-06-14T04:20:07;7.85;;;4.70;;
11046;SDS011;5576;50.008;10.596;2023-06-14T04:22:35;6.57;;;5.00;;
11046;SDS011;5576;50.008;10.596;2023-06-14T04:25:02;6.38;;;4.70;;
11046;SDS011;5576;50.008;10.596;2023-06-14T04:27:29;7.47;;;5.18;;
11046;SDS011;5576;50.008;10.596;2023-06-14T04:29:58;5.72;;;4.72;;
11046;SDS011;5576;50.008;10.596;2023-06-14T04:32:32;6.35;;;4.32;;
11046;SDS011;5576;50.008;10.596;2023-06-14T04:34:59;9.15;;;4.47;;
11046;SDS011;5576;50.008;10.596;2023-06-14T04:37:28;6.93;;;4.22;;
11046;SDS011;5576;50.008;10.596;2023-06-14T04:39:55;5.90;;;4.40;;
11046;SDS011;5576;50.008;10.596;2023-06-14T04:42:22;5.60;;;4.43;;
11046;SDS011;5576;50.008;10.596;2023-06-14T04:44:51;5.13;;;4.40;;
11046;SDS011;5576;50.008;10.596;2023-06-14T04:47:21;6.90;;;4.53;;
11046;SDS011;5576;50.008;10.596;2023-06-14T04:49:47;6.43;;;4.60;;
11046;SDS011;5576;50.008;10.596;2023-06-14T04:52:12;7.25;;;4.47;;
11046;SDS011;5576;50.008;10.596;2023-06-14T04:54:41;5.63;;;4.40;;
11046;SDS011;5576;50.008;10.596;2023-06-14T04:57:09;6.45;;;4.72;;
11046;SDS011;5576;50.008;10.596;2023-06-14T04:59:39;5.78;;;4.45;;
11046;SDS011;5576;50.008;10.596;2023-06-14T05:02:05;6.13;;;4.50;;
11046;SDS011;5576;50.008;10.596;2023-06-14T05:04:33;6.68;;;4.20;;
11046;SDS011;5576;50.008;10.596;2023-06-14T05:06:59;5.00;;;4.40;;
11046;SDS011;5576;50.008;10.596;2023-06-14T05:09:24;4.83;;;4.30;;
11046;SDS011;5576;50.008;10.596;2023-06-14T05:11:50;4.20;;;3.80;;
11046;SDS011;5576;50.008;10.596;2023-06-14T05:14:16;5.27;;;4.00;;
11046;SDS011;5576;50.008;10.596;2023-06-14T05:16:43;6.47;;;4.40;;
11046;SDS011;5576;50.008;10.596;2023-06-14T05:19:09;5.78;;;4.25;;
11046;SDS011;5576;50.008;10.596;2023-06-14T05:21:36;5.35;;;3.97;;
11046;SDS011;5576;50.008;10.596;2023-06-14T05:24:02;4.27;;;3.87;;
11046;SDS011;5576;50.008;10.596;2023-06-14T05:26:28;6.23;;;4.37;;
11046;SDS011;5576;50.008;10.596;2023-06-14T05:28:56;4.80;;;4.10;;
11046;SDS011;5576;50.008;10.596;2023-06-14T05:31:23;5.25;;;4.07;;
11046;SDS011;5576;50.008;10.596;2023-06-14T05:33:51;5.90;;;4.25;;
11046;SDS011;5576;50.008;10.596;2023-06-14T05:36:17;4.95;;;4.03;;
11046;SDS011;5576;50.008;10.596;2023-06-14T05:38:43;4.97;;;4.05;;
11046;SDS011;5576;50.008;10.596;2023-06-14T05:41:10;4.70;;;3.90;;
11046;SDS011;5576;50.008;10.596;2023-06-14T05:43:36;4.43;;;4.00;;
11046;SDS011;5576;50.008;10.596;2023-06-14T05:46:01;4.97;;;4.00;;
11046;SDS011;5576;50.008;10.596;2023-06-14T05:48:27;5.30;;;4.00;;
11046;SDS011;5576;50.008;10.596;2023-06-14T05:50:54;5.47;;;3.92;;
11046;SDS011;5576;50.008;10.596;2023-06-14T05:53:19;5.70;;;4.13;;
11046;SDS011;5576;50.008;10.596;2023-06-14T05:55:45;7.70;;;4.00;;
11046;SDS011;5576;50.008;10.596;2023-06-14T05:58:11;4.50;;;3.75;;
11046;SDS011;5576;50.008;10.596;2023-06-14T06:00:38;4.38;;;3.90;;
11046;SDS011;5576;50.008;10.596;2023-06-14T06:03:05;3.83;;;3.42;;
11046;SDS011;5576;50.008;10.596;2023-06-14T06:05:33;4.30;;;3.67;;
11046;SDS011;5576;50.008;10.596;2023-06-14T06:07:58;4.47;;;3.60;;
11046;SDS011;5576;50.008;10.596;2023-06-14T06:10:25;4.85;;;4.00;;
11046;SDS011;5576;50.008;10.596;2023-06-14T06:12:51;4.30;;;3.90;;
11046;SDS011;5576;50.008;10.596;2023-06-14T06:15:19;5.55;;;4.00;;
11046;SDS011;5576;50.008;10.596;2023-06-14T06:17:45;6.35;;;4.10;;
11046;SDS011;5576;50.008;10.596;2023-06-14T06:20:11;4.40;;;3.50;;
11046;SDS011;5576;50.008;10.596;2023-06-14T06:22:37;4.57;;;3.60;;
11046;SDS011;5576;50.008;10.596;2023-06-14T06:25:04;5.47;;;3.88;;
11046;SDS011;5576;50.008;10.596;2023-06-14T06:27:32;5.28;;;3.80;;
11046;SDS011;5576;50.008;10.596;2023-06-14T06:29:57;5.25;;;4.10;;
11046;SDS011;5576;50.008;10.596;2023-06-14T06:32:23;4.37;;;3.90;;
11046;SDS011;5576;50.008;10.596;2023-06-14T06:34:49;4.72;;;3.60;;
11046;SDS011;5576;50.008;10.596;2023-06-14T06:37:15;4.28;;;3.88;;
11046;SDS011;5576;50.008;10.596;2023-06-14T06:39:41;4.10;;;3.70;;
11046;SDS011;5576;50.008;10.596;2023-06-14T06:42:08;5.47;;;3.47;;
11046;SDS011;5576;50.008;10.596;2023-06-14T06:44:36;4.90;;;3.97;;
11046;SDS011;5576;50.008;10.596;2023-06-14T06:47:01;4.27;;;3.80;;
11046;SDS011;5576;50.008;10.596;2023-06-14T06:49:27;4.93;;;3.60;;
11046;SDS011;5576;50.008;10.596;2023-06-14T06:52:01;4.37;;;3.80;;
11046;SDS011;5576;50.008;10.596;2023-06-14T06:54:29;4.30;;;3.90;;
11046;SDS011;5576;50.008;10.596;2023-06-14T06:56:55;5.82;;;3.90;;
11046;SDS011;5576;50.008;10.596;2023-06-14T06:59:21;4.60;;;3.50;;
11046;SDS011;5576;50.008;10.596;2023-06-14T07:01:46;3.72;;;3.40;;
11046;SDS011;5576;50.008;10.596;2023-06-14T07:04:12;5.20;;;3.60;;
11046;SDS011;5576;50.008;10.596;2023-06-14T07:06:38;4.43;;;3.80;;
11046;SDS011;5576;50.008;10.596;2023-06-14T07:09:04;3.90;;;3.40;;
11046;SDS011;5576;50.008;10.596;2023-06-14T07:11:33;4.80;;;3.70;;
11046;SDS011;5576;50.008;10.596;2023-06-14T07:13:59;4.13;;;3.30;;
11046;SDS011;5576;50.008;10.596;2023-06-14T07:16:25;5.17;;;3.87;;
11046;SDS011;5576;50.008;10.596;2023-06-14T07:18:51;3.92;;;3.33;;
11046;SDS011;5576;50.008;10.596;2023-06-14T07:21:17;4.30;;;3.60;;
11046;SDS011;5576;50.008;10.596;2023-06-14T07:23:43;4.78;;;3.47;;
11046;SDS011;5576;50.008;10.596;2023-06-14T07:26:09;3.73;;;3.40;;
11046;SDS011;5576;50.008;10.596;2023-06-14T07:28:34;3.63;;;3.30;;
11046;SDS011;5576;50.008;10.596;2023-06-14T07:31:01;4.35;;;3.38;;
11046;SDS011;5576;50.008;10.596;2023-06-14T07:33:27;4.32;;;3.20;;
11046;SDS011;5576;50.008;10.596;2023-06-14T07:35:53;3.58;;;3.17;;
11046;SDS011;5576;50.008;10.596;2023-06-14T07:38:19;4.40;;;3.33;;
11046;SDS011;5576;50.008;10.596;2023-06-14T07:40:45;4.63;;;3.20;;
11046;SDS011;5576;50.008;10.596;2023-06-14T07:43:11;3.75;;;3.30;;
11046;SDS011;5576;50.008;10.596;2023-06-14T07:45:37;3.60;;;2.90;;
11046;SDS011;5576;50.008;10.596;2023-06-14T07:48:03;4.40;;;3.20;;
11046;SDS011;5576;50.008;10.596;2023-06-14T07:50:29;3.72;;;2.88;;
11046;SDS011;5576;50.008;10.596;2023-06-14T07:52:55;3.42;;;2.90;;
11046;SDS011;5576;50.008;10.596;2023-06-14T07:55:21;4.40;;;3.08;;
11046;SDS011;5576;50.008;10.596;2023-06-14T07:57:47;3.85;;;3.08;;
11046;SDS011;5576;50.008;10.596;2023-06-14T08:00:13;3.88;;;3.15;;
11046;SDS011;5576;50.008;10.596;2023-06-14T08:02:41;3.42;;;2.88;;
11046;SDS011;5576;50.008;10.596;2023-06-14T08:05:09;4.95;;;3.00;;
11046;SDS011;5576;50.008;10.596;2023-06-14T08:07:36;3.67;;;2.97;;
11046;SDS011;5576;50.008;10.596;2023-06-14T08:10:03;4.50;;;3.10;;
11046;SDS011;5576;50.008;10.596;2023-06-14T08:12:30;3.88;;;3.00;;
11046;SDS011;5576;50.008;10.596;2023-06-14T08:14:56;3.93;;;2.90;;
11046;SDS011;5576;50.008;10.596;2023-06-14T08:17:22;3.30;;;3.00;;
11046;SDS011;5576;50.008;10.596;2023-06-14T08:19:47;3.40;;;3.10;;
11046;SDS011;5576;50.008;10.596;2023-06-14T08:22:13;3.57;;;3.03;;
11046;SDS011;5576;50.008;10.596;2023-06-14T08:24:39;4.13;;;2.80;;
11046;SDS011;5576;50.008;10.596;2023-06-14T08:27:06;4.13;;;2.60;;
11046;SDS011;5576;50.008;10.596;2023-06-14T08:29:32;3.15;;;2.90;;
11046;SDS011;5576;50.008;10.596;2023-06-14T08:31:58;3.35;;;2.80;;
11046;SDS011;5576;50.008;10.596;2023-06-14T08:34:24;4.47;;;3.33;;
11046;SDS011;5576;50.008;10.596;2023-06-14T08:36:50;3.35;;;2.75;;
11046;SDS011;5576;50.008;10.596;2023-06-14T08:39:16;3.00;;;2.70;;
11046;SDS011;5576;50.008;10.596;2023-06-14T08:41:43;4.50;;;2.90;;
11046;SDS011;5576;50.008;10.596;2023-06-14T08:44:11;3.75;;;3.00;;
11046;SDS011;5576;50.008;10.596;2023-06-14T08:46:37;2.80;;;2.50;;
11046;SDS011;5576;50.008;10.596;2023-06-14T08:49:04;3.05;;;2.60;;
11046;SDS011;5576;50.008;10.596;2023-06-14T08:51:32;3.15;;;2.70;;
11046;SDS011;5576;50.008;10.596;2023-06-14T08:54:01;3.00;;;2.72;;
11046;SDS011;5576;50.008;10.596;2023-06-14T08:56:29;2.95;;;2.65;;
11046;SDS011;5576;50.008;10.596;2023-06-14T08:58:57;3.55;;;2.72;;
11046;SDS011;5576;50.008;10.596;2023-06-14T09:01:28;2.78;;;2.58;;
11046;SDS011;5576;50.008;10.596;2023-06-14T09:03:53;3.60;;;2.60;;
11046;SDS011;5576;50.008;10.596;2023-06-14T09:06:22;3.40;;;2.72;;
11046;SDS011;5576;50.008;10.596;2023-06-14T09:08:49;3.83;;;3.20;;
11046;SDS011;5576;50.008;10.596;2023-06-14T09:11:16;3.47;;;2.90;;
11046;SDS011;5576;50.008;10.596;2023-06-14T09:13:44;3.03;;;2.80;;
11046;SDS011;5576;50.008;10.596;2023-06-14T09:16:11;3.50;;;3.10;;
11046;SDS011;5576;50.008;10.596;2023-06-14T09:18:38;3.20;;;2.63;;
11046;SDS011;5576;50.008;10.596;2023-06-14T09:21:08;3.93;;;2.77;;
11046;SDS011;5576;50.008;10.596;2023-06-14T09:23:36;3.57;;;2.43;;
11046;SDS011;5576;50.008;10.596;2023-06-14T09:26:08;2.92;;;2.50;;
11046;SDS011;5576;50.008;10.596;2023-06-14T09:28:35;3.07;;;2.70;;
11046;SDS011;5576;50.008;10.596;2023-06-14T09:31:05;3.05;;;2.70;;
11046;SDS011;5576;50.008;10.596;2023-06-14T09:33:34;2.67;;;2.35;;
11046;SDS011;5576;50.008;10.596;2023-06-14T09:35:59;3.90;;;2.80;;
11046;SDS011;5576;50.008;10.596;2023-06-14T09:38:25;2.90;;;2.60;;
11046;SDS011;5576;50.008;10.596;2023-06-14T09:40:52;3.20;;;2.78;;
11046;SDS011;5576;50.008;10.596;2023-06-14T09:43:17;3.83;;;3.00;;
11046;SDS011;5576;50.008;10.596;2023-06-14T09:45:44;3.88;;;3.03;;
11046;SDS011;5576;50.008;10.596;2023-06-14T09:48:13;3.72;;;3.00;;
11046;SDS011;5576;50.008;10.596;2023-06-14T09:50:46;4.18;;;2.92;;
11046;SDS011;5576;50.008;10.596;2023-06-14T09:53:13;4.90;;;3.40;;
11046;SDS011;5576;50.008;10.596;2023-06-14T09:55:41;4.13;;;3.05;;
11046;SDS011;5576;50.008;10.596;2023-06-14T09:58:08;3.08;;;2.75;;
11046;SDS011;5576;50.008;10.596;2023-06-14T10:00:35;2.90;;;2.60;;
11046;SDS011;5576;50.008;10.596;2023-06-14T10:03:05;3.55;;;2.80;;
11046;SDS011;5576;50.008;10.596;2023-06-14T10:05:36;3.22;;;2.80;;
11046;SDS011;5576;50.008;10.596;2023-06-14T10:08:04;4.18;;;2.95;;
11046;SDS011;5576;50.008;10.596;2023-06-14T10:10:33;5.00;;;2.70;;
11046;SDS011;5576;50.008;10.596;2023-06-14T10:12:59;4.13;;;2.95;;
11046;SDS011;5576;50.008;10.596;2023-06-14T10:15:28;3.10;;;2.80;;
11046;SDS011;5576;50.008;10.596;2023-06-14T10:18:01;3.33;;;2.63;;
11046;SDS011;5576;50.008;10.596;2023-06-14T10:20:39;2.97;;;2.67;;
11046;SDS011;5576;50.008;10.596;2023-06-14T10:23:10;3.40;;;2.70;;
11046;SDS011;5576;50.008;10.596;2023-06-14T10:25:41;5.03;;;2.50;;
11046;SDS011;5576;50.008;10.596;2023-06-14T10:33:29;2.83;;;2.42;;
11046;SDS011;5576;50.008;10.596;2023-06-14T10:38:58;3.00;;;2.60;;
11046;SDS011;5576;50.008;10.596;2023-06-14T10:41:35;3.72;;;2.58;;
11046;SDS011;5576;50.008;10.596;2023-06-14T10:46:49;2.42;;;2.22;;
11046;SDS011;5576;50.008;10.596;2023-06-14T10:49:17;2.28;;;2.08;;
11046;SDS011;5576;50.008;10.596;2023-06-14T10:51:45;2.58;;;2.15;;
11046;SDS011;5576;50.008;10.596;2023-06-14T10:54:16;3.27;;;2.30;;
11046;SDS011;5576;50.008;10.596;2023-06-14T10:56:50;3.78;;;2.30;;
11046;SDS011;5576;50.008;10.596;2023-06-14T10:59:17;3.30;;;2.10;;
11046;SDS011;5576;50.008;10.596;2023-06-14T11:01:54;2.53;;;2.33;;
11046;SDS011;5576;50.008;10.596;2023-06-14T11:04:46;2.42;;;2.22;;
11046;SDS011;5576;50.008;10.596;2023-06-14T11:13:02;2.58;;;2.10;;
11046;SDS011;5576;50.008;10.596;2023-06-14T11:15:29;2.45;;;2.25;;
11046;SDS011;5576;50.008;10.596;2023-06-14T11:17:57;2.57;;;2.37;;
11046;SDS011;5576;50.008;10.596;2023-06-14T11:20:26;2.72;;;2.20;;
11046;SDS011;5576;50.008;10.596;2023-06-14T11:22:56;3.33;;;2.17;;
11046;SDS011;5576;50.008;10.596;2023-06-14T11:25:21;2.50;;;1.92;;
11046;SDS011;5576;50.008;10.596;2023-06-14T11:27:49;3.27;;;2.20;;
11046;SDS011;5576;50.008;10.596;2023-06-14T11:30:15;2.50;;;2.07;;
11046;SDS011;5576;50.008;10.596;2023-06-14T11:32:41;2.40;;;2.00;;
11046;SDS011;5576;50.008;10.596;2023-06-14T11:35:07;2.53;;;2.10;;
11046;SDS011;5576;50.008;10.596;2023-06-14T11:37:35;3.92;;;2.30;;
11046;SDS011;5576;50.008;10.596;2023-06-14T11:40:03;2.60;;;2.20;;
11046;SDS011;5576;50.008;10.596;2023-06-14T11:42:33;4.05;;;2.30;;
11046;SDS011;5576;50.008;10.596;2023-06-14T11:44:59;4.03;;;2.25;;
11046;SDS011;5576;50.008;10.596;2023-06-14T11:47:34;2.50;;;2.20;;
11046;SDS011;5576;50.008;10.596;2023-06-14T11:50:02;2.80;;;2.15;;
11046;SDS011;5576;50.008;10.596;2023-06-14T11:52:29;2.42;;;1.80;;
11046;SDS011;5576;50.008;10.596;2023-06-14T11:54:55;3.05;;;2.10;;
11046;SDS011;5576;50.008;10.596;2023-06-14T11:57:22;3.03;;;2.00;;
11046;SDS011;5576;50.008;10.596;2023-06-14T11:59:48;2.45;;;2.00;;
11046;SDS011;5576;50.008;10.596;2023-06-14T12:02:14;3.80;;;2.00;;
11046;SDS011;5576;50.008;10.596;2023-06-14T12:04:42;2.15;;;1.95;;
11046;SDS011;5576;50.008;10.596;2023-06-14T12:07:09;2.95;;;2.00;;
11046;SDS011;5576;50.008;10.596;2023-06-14T12:09:41;2.10;;;1.90;;
11046;SDS011;5576;50.008;10.596;2023-06-14T12:12:09;2.42;;;1.98;;
11046;SDS011;5576;50.008;10.596;2023-06-14T12:14:37;2.90;;;2.00;;
11046;SDS011;5576;50.008;10.596;2023-06-14T12:17:04;2.20;;;2.00;;
11046;SDS011;5576;50.008;10.596;2023-06-14T12:19:31;3.20;;;1.98;;
11046;SDS011;5576;50.008;10.596;2023-06-14T12:21:59;3.50;;;2.07;;
11046;SDS011;5576;50.008;10.596;2023-06-14T12:24:27;2.13;;;1.90;;
11046;SDS011;5576;50.008;10.596;2023-06-14T12:26:54;2.92;;;2.20;;
11046;SDS011;5576;50.008;10.596;2023-06-14T12:29:22;2.20;;;2.00;;
11046;SDS011;5576;50.008;10.596;2023-06-14T12:31:49;2.65;;;2.00;;
11046;SDS011;5576;50.008;10.596;2023-06-14T12:34:14;2.83;;;1.95;;
11046;SDS011;5576;50.008;10.596;2023-06-14T12:36:40;2.47;;;2.10;;
11046;SDS011;5576;50.008;10.596;2023-06-14T12:39:07;3.58;;;1.88;;
11046;SDS011;5576;50.008;10.596;2023-06-14T12:41:33;2.35;;;1.98;;
11046;SDS011;5576;50.008;10.596;2023-06-14T12:43:59;2.97;;;2.20;;
11046;SDS011;5576;50.008;10.596;2023-06-14T12:46:30;2.33;;;2.13;;
11046;SDS011;5576;50.008;10.596;2023-06-14T12:48:57;2.20;;;2.00;;
11046;SDS011;5576;50.008;10.596;2023-06-14T12:51:22;2.43;;;2.23;;
11046;SDS011;5576;50.008;10.596;2023-06-14T12:53:50;2.40;;;2.10;;
11046;SDS011;5576;50.008;10.596;2023-06-14T12:56:16;2.85;;;2.00;;
11046;SDS011;5576;50.008;10.596;2023-06-14T12:58:42;2.70;;;2.03;;
11046;SDS011;5576;50.008;10.596;2023-06-14T13:01:07;2.20;;;2.00;;
11046;SDS011;5576;50.008;10.596;2023-06-14T13:03:33;2.40;;;2.00;;
11046;SDS011;5576;50.008;10.596;2023-06-14T13:05:59;2.13;;;1.80;;
11046;SDS011;5576;50.008;10.596;2023-06-14T13:08:26;3.83;;;2.40;;
11046;SDS011;5576;50.008;10.596;2023-06-14T13:10:53;3.30;;;2.25;;
11046;SDS011;5576;50.008;10.596;2023-06-14T13:13:19;3.20;;;2.03;;
11046;SDS011;5576;50.008;10.596;2023-06-14T13:15:44;5.70;;;2.20;;
11046;SDS011;5576;50.008;10.596;2023-06-14T13:18:11;3.20;;;2.10;;
11046;SDS011;5576;50.008;10.596;2023-06-14T13:20:38;2.30;;;2.10;;
11046;SDS011;5576;50.008;10.596;2023-06-14T13:23:04;3.03;;;2.00;;
11046;SDS011;5576;50.008;10.596;2023-06-14T13:25:33;2.88;;;2.05;;
11046;SDS011;5576;50.008;10.596;2023-06-14T13:28:00;2.30;;;2.05;;
11046;SDS011;5576;50.008;10.596;2023-06-14T13:30:25;2.33;;;1.97;;
11046;SDS011;5576;50.008;10.596;2023-06-14T13:32:51;2.20;;;2.00;;
11046;SDS011;5576;50.008;10.596;2023-06-14T13:35:18;3.20;;;2.07;;
11046;SDS011;5576;50.008;10.596;2023-06-14T13:37:44;3.28;;;2.22;;
11046;SDS011;5576;50.008;10.596;2023-06-14T13:40:10;2.23;;;1.90;;
11046;SDS011;5576;50.008;10.596;2023-06-14T13:42:36;2.50;;;2.07;;
11046;SDS011;5576;50.008;10.596;2023-06-14T13:45:02;2.75;;;2.22;;
11046;SDS011;5576;50.008;10.596;2023-06-14T13:47:29;2.72;;;1.90;;
11046;SDS011;5576;50.008;10.596;2023-06-14T13:49:55;2.47;;;2.27;;
11046;SDS011;5576;50.008;10.596;2023-06-14T13:52:21;2.22;;;2.03;;
11046;SDS011;5576;50.008;10.596;2023-06-14T13:54:47;3.30;;;2.00;;
11046;SDS011;5576;50.008;10.596;2023-06-14T13:57:13;2.58;;;2.20;;
11046;SDS011;5576;50.008;10.596;2023-06-14T13:59:39;3.20;;;2.10;;
11046;SDS011;5576;50.008;10.596;2023-06-14T14:02:06;2.38;;;2.17;;
11046;SDS011;5576;50.008;10.596;2023-06-14T14:04:33;2.22;;;2.03;;
11046;SDS011;5576;50.008;10.596;2023-06-14T14:07:00;3.00;;;2.22;;
11046;SDS011;5576;50.008;10.596;2023-06-14T14:09:27;3.38;;;2.22;;
11046;SDS011;5576;50.008;10.596;2023-06-14T14:11:52;2.53;;;2.33;;
11046;SDS011;5576;50.008;10.596;2023-06-14T14:14:18;3.47;;;2.55;;
11046;SDS011;5576;50.008;10.596;2023-06-14T14:16:44;3.00;;;2.20;;
11046;SDS011;5576;50.008;10.596;2023-06-14T14:19:10;4.10;;;2.65;;
11046;SDS011;5576;50.008;10.596;2023-06-14T14:21:35;2.45;;;2.25;;
11046;SDS011;5576;50.008;10.596;2023-06-14T14:24:01;3.37;;;2.43;;
11046;SDS011;5576;50.008;10.596;2023-06-14T14:26:27;2.63;;;2.13;;
11046;SDS011;5576;50.008;10.596;2023-06-14T14:28:53;2.47;;;2.27;;
11046;SDS011;5576;50.008;10.596;2023-06-14T14:31:18;4.10;;;2.60;;
11046;SDS011;5576;50.008;10.596;2023-06-14T14:33:44;3.40;;;2.50;;
11046;SDS011;5576;50.008;10.596;2023-06-14T14:36:10;2.88;;;2.20;;
11046;SDS011;5576;50.008;10.596;2023-06-14T14:38:36;2.60;;;2.40;;
11046;SDS011;5576;50.008;10.596;2023-06-14T14:41:02;2.80;;;2.35;;
11046;SDS011;5576;50.008;10.596;2023-06-14T14:43:27;4.40;;;2.60;;
11046;SDS011;5576;50.008;10.596;2023-06-14T14:45:56;3.10;;;2.35;;
11046;SDS011;5576;50.008;10.596;2023-06-14T14:48:21;5.00;;;2.33;;
11046;SDS011;5576;50.008;10.596;2023-06-14T14:50:47;2.40;;;2.20;;
11046;SDS011;5576;50.008;10.596;2023-06-14T14:53:13;2.47;;;2.27;;
11046;SDS011;5576;50.008;10.596;2023-06-14T14:55:42;2.67;;;2.30;;
11046;SDS011;5576;50.008;10.596;2023-06-14T14:58:08;3.15;;;2.20;;
11046;SDS011;5576;50.008;10.596;2023-06-14T15:00:34;2.77;;;2.27;;
11046;SDS011;5576;50.008;10.596;2023-06-14T15:03:00;2.30;;;2.10;;
11046;SDS011;5576;50.008;10.596;2023-06-14T15:05:26;2.90;;;2.30;;
11046;SDS011;5576;50.008;10.596;2023-06-14T15:07:52;3.77;;;2.13;;